createdAt,value
2023-01-25T00:01:23.149Z,20.80
2023-01-25T00:04:08.109Z,21.85
2023-01-25T00:06:53.464Z,22.60
2023-01-25T00:09:38.692Z,22.52
2023-01-25T00:12:24.118Z,21.58
2023-01-25T00:15:09.911Z,24.77
2023-01-25T00:17:55.555Z,24.20
2023-01-25T00:20:40.514Z,22.23
2023-01-25T00:23:25.687Z,21.85
2023-01-25T00:26:11.313Z,20.20
2023-01-25T00:28:56.443Z,22.23
2023-01-25T00:31:47.648Z,23.95
2023-01-25T00:34:44.077Z,22.60
2023-01-25T00:37:36.483Z,24.17
2023-01-25T00:40:21.347Z,21.85
2023-01-25T00:43:06.425Z,23.48
2023-01-25T00:45:51.676Z,22.65
2023-01-25T00:48:37.079Z,22.33
2023-01-25T00:51:22.689Z,24.10
2023-01-25T00:54:07.569Z,23.23
2023-01-25T00:56:53.851Z,23.00
2023-01-25T00:59:38.781Z,22.42
2023-01-25T01:02:24.046Z,22.33
2023-01-25T01:05:09.952Z,21.98
2023-01-25T01:07:56.105Z,22.13
2023-01-25T01:10:44.442Z,22.52
2023-01-25T01:13:30.448Z,23.95
2023-01-25T01:16:15.538Z,22.98
2023-01-25T01:19:01.178Z,20.30
2023-01-25T01:21:46.285Z,19.75
2023-01-25T01:24:32.142Z,21.67
2023-01-25T01:27:17.487Z,20.58
2023-01-25T01:30:02.701Z,21.73
2023-01-25T01:32:48.076Z,21.67
2023-01-25T01:35:33.308Z,23.45
2023-01-25T01:38:18.594Z,24.02
2023-01-25T01:41:03.785Z,23.23
2023-01-25T01:43:49.689Z,21.02
2023-01-25T01:46:37.414Z,19.88
2023-01-25T01:49:29.174Z,20.35
2023-01-25T01:52:17.144Z,21.30
2023-01-25T01:55:11.732Z,19.80
2023-01-25T01:57:59.393Z,18.83
2023-01-25T02:00:44.441Z,20.20
2023-01-25T02:03:30.522Z,18.90
2023-01-25T02:06:24.641Z,20.73
2023-01-25T02:09:09.714Z,21.83
2023-01-25T02:11:57.410Z,22.15
2023-01-25T02:14:48.384Z,18.70
2023-01-25T02:17:38.853Z,21.88
2023-01-25T02:20:37.322Z,19.92
2023-01-25T02:23:22.324Z,21.70
2023-01-25T02:26:07.989Z,24.17
2023-01-25T02:28:59.635Z,18.40
2023-01-25T02:31:47.159Z,19.48
2023-01-25T02:34:32.710Z,19.42
2023-01-25T02:37:17.820Z,18.55
2023-01-25T02:40:05.662Z,20.30
2023-01-25T02:42:50.814Z,21.83
2023-01-25T02:45:35.702Z,20.98
2023-01-25T02:48:20.661Z,21.00
2023-01-25T02:51:09.924Z,22.30
2023-01-25T02:53:56.094Z,24.60
2023-01-25T02:56:41.183Z,22.27
2023-01-25T02:59:26.489Z,20.50
2023-01-25T03:02:11.780Z,22.48
2023-01-25T03:04:56.977Z,22.38
2023-01-25T03:07:42.328Z,23.67
2023-01-25T03:10:27.686Z,20.25
2023-01-25T03:13:13.648Z,21.40
2023-01-25T03:16:11.112Z,20.63
2023-01-25T03:18:56.460Z,22.60
2023-01-25T03:21:41.838Z,21.50
2023-01-25T03:24:27.144Z,23.88
2023-01-25T03:27:14.079Z,22.48
2023-01-25T03:29:59.238Z,20.52
2023-01-25T03:32:44.250Z,22.60
2023-01-25T03:35:29.190Z,24.27
2023-01-25T03:38:14.281Z,24.77
2023-01-25T03:40:59.252Z,21.65
2023-01-25T03:43:44.392Z,22.67
2023-01-25T03:46:29.363Z,23.65
2023-01-25T03:49:14.266Z,22.35
2023-01-25T03:51:59.136Z,22.25
2023-01-25T03:54:44.244Z,25.15
2023-01-25T03:57:29.335Z,22.48
2023-01-25T04:00:14.647Z,20.15
2023-01-25T04:02:59.694Z,23.77
2023-01-25T04:05:44.617Z,22.60
2023-01-25T04:08:29.922Z,20.60
2023-01-25T04:11:14.988Z,22.08
2023-01-25T04:14:00.048Z,20.65
2023-01-25T04:16:45.460Z,23.45
2023-01-25T04:19:30.581Z,23.35
2023-01-25T04:22:16.550Z,25.48
2023-01-25T04:25:01.653Z,24.90
2023-01-25T04:27:46.886Z,25.75
2023-01-25T04:30:32.087Z,26.30
2023-01-25T04:33:17.736Z,26.50
2023-01-25T04:36:03.106Z,25.77
2023-01-25T04:38:51.527Z,23.58
2023-01-25T04:41:36.575Z,24.40
2023-01-25T04:44:21.680Z,23.63
2023-01-25T04:47:06.795Z,24.63
2023-01-25T04:49:51.818Z,24.58
2023-01-25T04:52:36.765Z,23.92
2023-01-25T04:55:22.276Z,22.42
2023-01-25T04:58:07.550Z,23.33
2023-01-25T05:00:52.513Z,23.88
2023-01-25T05:03:37.692Z,22.20
2023-01-25T05:06:23.143Z,19.75
2023-01-25T05:09:09.964Z,19.02
2023-01-25T05:11:55.233Z,20.17
2023-01-25T05:14:40.543Z,20.07
2023-01-25T05:17:25.787Z,19.42
2023-01-25T05:20:11.626Z,19.25
2023-01-25T05:22:56.890Z,19.60
2023-01-25T05:26:01.797Z,19.90
2023-01-25T05:28:47.126Z,18.15
2023-01-25T05:31:31.896Z,17.70
2023-01-25T05:34:16.987Z,18.65
2023-01-25T05:37:02.991Z,18.75
2023-01-25T05:39:48.175Z,17.33
2023-01-25T05:42:33.544Z,18.77
2023-01-25T05:45:18.787Z,19.85
2023-01-25T05:48:04.202Z,18.67
2023-01-25T05:50:49.533Z,19.23
2023-01-25T05:53:34.693Z,17.60
2023-01-25T05:56:20.017Z,18.15
2023-01-25T05:59:05.048Z,18.10
2023-01-25T06:01:50.325Z,17.92
2023-01-25T06:04:35.451Z,17.60
2023-01-25T06:07:20.410Z,18.58
2023-01-25T06:10:05.840Z,19.38
2023-01-25T06:12:51.209Z,15.85
2023-01-25T06:15:36.320Z,17.47
2023-01-25T06:18:22.514Z,18.13
2023-01-25T06:21:07.568Z,18.60
2023-01-25T06:23:52.831Z,18.00
2023-01-25T06:26:38.033Z,17.00
2023-01-25T06:29:23.033Z,17.40
2023-01-25T06:32:07.975Z,19.08
2023-01-25T06:34:53.208Z,19.45
2023-01-25T06:37:38.339Z,17.85
2023-01-25T06:40:24.072Z,16.02
2023-01-25T06:43:10.036Z,17.65
2023-01-25T06:46:00.552Z,17.55
2023-01-25T06:48:45.910Z,19.73
2023-01-25T06:51:31.246Z,19.48
2023-01-25T06:54:16.393Z,16.63
2023-01-25T06:57:01.620Z,20.42
2023-01-25T06:59:46.577Z,19.00
2023-01-25T07:02:31.724Z,20.60
2023-01-25T07:05:17.098Z,21.17
2023-01-25T07:08:02.452Z,19.35
2023-01-25T07:10:56.855Z,20.42
2023-01-25T07:13:43.398Z,19.52
2023-01-25T07:16:28.489Z,18.20
2023-01-25T07:19:13.667Z,17.98
2023-01-25T07:21:58.863Z,19.35
2023-01-25T07:24:49.839Z,20.27
2023-01-25T07:27:35.253Z,20.35
2023-01-25T07:30:21.698Z,19.35
2023-01-25T07:33:06.917Z,21.85
2023-01-25T07:35:51.848Z,23.80
2023-01-25T07:38:37.203Z,23.83
2023-01-25T07:41:23.471Z,21.90
2023-01-25T07:44:10.239Z,24.05
2023-01-25T07:46:55.222Z,24.05
2023-01-25T07:49:40.675Z,23.15
2023-01-25T07:52:26.545Z,23.60
2023-01-25T07:55:12.051Z,22.45
2023-01-25T07:57:57.526Z,23.17
2023-01-25T08:00:42.657Z,23.70
2023-01-25T08:03:27.584Z,22.70
2023-01-25T08:06:13.494Z,24.38
2023-01-25T08:08:59.615Z,24.25
2023-01-25T08:11:44.889Z,25.15
2023-01-25T08:14:30.116Z,24.27
2023-01-25T08:26:36.273Z,27.48
2023-01-25T08:29:12.810Z,31.20
2023-01-25T08:31:57.794Z,29.35
2023-01-25T08:34:42.991Z,27.08
2023-01-25T08:37:29.635Z,27.65
2023-01-25T08:40:14.734Z,26.50
2023-01-25T08:42:59.811Z,26.35
2023-01-25T08:45:45.253Z,28.85
2023-01-25T08:48:30.390Z,30.80
2023-01-25T08:51:16.445Z,29.15
2023-01-25T08:54:06.037Z,29.95
2023-01-25T08:56:52.012Z,27.40
2023-01-25T08:59:37.106Z,28.13
2023-01-25T09:02:22.166Z,29.35
2023-01-25T09:05:07.627Z,26.23
2023-01-25T09:07:52.937Z,26.27
2023-01-25T09:10:37.969Z,27.95
2023-01-25T09:13:23.248Z,28.75
2023-01-25T09:16:11.213Z,28.67
2023-01-25T09:19:02.513Z,26.83
2023-01-25T09:21:48.341Z,24.58
2023-01-25T09:24:37.013Z,25.55
2023-01-25T09:27:22.328Z,26.13
2023-01-25T09:30:16.627Z,26.80
2023-01-25T09:33:04.900Z,24.33
2023-01-25T09:35:49.953Z,24.17
2023-01-25T09:38:35.626Z,25.40
2023-01-25T09:41:39.581Z,25.13
2023-01-25T09:44:36.770Z,26.63
2023-01-25T09:47:44.950Z,25.30
2023-01-25T09:50:45.377Z,25.10
2023-01-25T09:53:35.661Z,25.88
2023-01-25T09:56:29.468Z,25.55
2023-01-25T09:59:19.885Z,25.40
2023-01-25T10:02:28.266Z,25.13
2023-01-25T10:05:21.705Z,26.42
2023-01-25T10:08:19.543Z,25.75
2023-01-25T10:11:14.942Z,27.50
2023-01-25T10:14:00.518Z,25.38
2023-01-25T10:16:50.070Z,25.70
2023-01-25T10:19:53.782Z,28.33
2023-01-25T10:22:51.369Z,29.05
2023-01-25T10:25:46.588Z,29.38
2023-01-25T10:28:54.410Z,29.30
2023-01-25T10:31:54.107Z,28.08
2023-01-25T10:34:55.827Z,28.00
2023-01-25T10:37:41.970Z,27.70
2023-01-25T10:40:40.728Z,29.65
2023-01-25T10:43:25.900Z,30.45
2023-01-25T10:46:25.502Z,31.83
2023-01-25T10:49:22.858Z,31.80
2023-01-25T10:52:26.300Z,30.00
2023-01-25T10:55:18.516Z,28.00
2023-01-25T10:58:03.402Z,24.05
2023-01-25T11:00:51.836Z,22.33
2023-01-25T11:03:44.599Z,24.38
2023-01-25T11:06:37.146Z,26.50
2023-01-25T11:09:22.252Z,28.70
2023-01-25T11:12:18.476Z,28.65
2023-01-25T11:15:24.666Z,30.63
2023-01-25T11:18:18.686Z,29.85
2023-01-25T11:21:11.514Z,25.63
2023-01-25T11:24:07.207Z,22.48
2023-01-25T11:27:22.698Z,22.70
2023-01-25T11:30:21.631Z,21.83
2023-01-25T11:33:11.701Z,22.75
2023-01-25T11:39:20.804Z,25.60
2023-01-25T11:42:08.736Z,23.58
2023-01-25T11:45:19.333Z,25.17
2023-01-25T11:48:26.076Z,26.08
2023-01-25T11:51:25.628Z,26.27
2023-01-25T11:54:25.738Z,18.63
2023-01-25T11:57:20.656Z,18.05
2023-01-25T12:00:24.129Z,17.38
2023-01-25T12:03:36.287Z,22.05
2023-01-25T12:06:30.539Z,22.20
2023-01-25T12:09:39.476Z,18.42
2023-01-25T12:12:55.646Z,19.70
2023-01-25T12:15:49.965Z,20.15
2023-01-25T12:18:49.183Z,21.90
2023-01-25T12:21:52.779Z,27.95
2023-01-25T12:25:20.703Z,26.42
2023-01-25T12:28:21.073Z,24.70
2023-01-25T12:31:32.236Z,27.25
2023-01-25T12:34:26.465Z,28.10
2023-01-25T12:37:27.952Z,23.45
2023-01-25T12:40:18.385Z,21.50
2023-01-25T12:43:05.329Z,23.88
2023-01-25T12:45:53.006Z,24.65
2023-01-25T12:48:43.222Z,25.00
2023-01-25T12:51:35.856Z,25.63
2023-01-25T12:54:32.353Z,25.90
2023-01-25T12:57:29.820Z,28.02
2023-01-25T13:00:18.906Z,27.77
2023-01-25T13:03:03.827Z,25.50
2023-01-25T13:05:57.280Z,25.45
2023-01-25T13:09:03.864Z,23.98
2023-01-25T13:11:49.744Z,20.77
2023-01-25T13:14:40.330Z,21.27
2023-01-25T13:17:34.814Z,17.35
2023-01-25T13:20:41.895Z,17.02
2023-01-25T13:23:34.798Z,18.05
2023-01-25T13:26:25.549Z,18.95
2023-01-25T13:29:31.668Z,17.48
2023-01-25T13:32:25.834Z,17.00
2023-01-25T13:35:31.388Z,17.08
2023-01-25T13:38:28.814Z,17.40
2023-01-25T13:41:16.901Z,14.85
2023-01-25T13:44:28.241Z,14.40
2023-01-25T13:47:17.608Z,13.43
2023-01-25T13:50:18.581Z,12.43
2023-01-25T13:53:25.129Z,12.25
2023-01-25T13:56:29.374Z,11.88
2023-01-25T13:59:28.136Z,12.20
2023-01-25T14:02:21.803Z,11.80
2023-01-25T14:05:17.940Z,12.77
2023-01-25T14:08:03.116Z,12.30
2023-01-25T14:10:50.047Z,13.90
2023-01-25T14:13:35.007Z,12.77
2023-01-25T14:16:20.321Z,13.73
2023-01-25T14:19:22.461Z,13.70
2023-01-25T14:22:19.995Z,13.32
2023-01-25T14:25:07.130Z,15.13
2023-01-25T14:27:54.781Z,15.27
2023-01-25T14:31:01.496Z,14.91
2023-01-25T14:33:48.120Z,16.52
2023-01-25T14:36:34.670Z,16.33
2023-01-25T14:39:29.079Z,16.45
2023-01-25T14:42:16.277Z,17.35
2023-01-25T14:45:01.162Z,17.70
2023-01-25T14:47:58.317Z,18.90
2023-01-25T14:50:44.543Z,18.40
2023-01-25T14:53:30.862Z,18.60
2023-01-25T14:56:30.788Z,20.27
2023-01-25T15:02:36.005Z,18.75
2023-01-25T15:05:33.067Z,20.65
2023-01-25T15:08:36.952Z,19.90
2023-01-25T15:11:48.929Z,19.08
2023-01-25T15:14:33.925Z,19.85
2023-01-25T15:17:45.621Z,20.60
2023-01-25T15:20:36.784Z,19.25
2023-01-25T15:23:25.521Z,18.83
2023-01-25T15:26:31.210Z,19.08
2023-01-25T15:29:22.549Z,16.95
2023-01-25T15:32:18.299Z,18.90
2023-01-25T15:35:04.623Z,19.20
2023-01-25T15:37:49.678Z,18.83
2023-01-25T15:40:34.788Z,18.60
2023-01-25T15:43:19.928Z,18.35
2023-01-25T15:46:06.776Z,16.73
2023-01-25T15:48:52.358Z,16.08
2023-01-25T15:51:37.541Z,16.25
2023-01-25T15:54:24.285Z,16.13
2023-01-25T15:57:34.511Z,16.05
2023-01-25T16:00:23.041Z,15.85
2023-01-25T16:03:08.486Z,14.93
2023-01-25T16:05:58.101Z,16.00
2023-01-25T16:08:43.579Z,16.88
2023-01-25T16:11:28.654Z,15.45
2023-01-25T16:14:14.246Z,15.63
2023-01-25T16:17:05.523Z,15.25
2023-01-25T16:19:50.843Z,16.13
2023-01-25T16:22:35.911Z,15.60
2023-01-25T16:25:21.186Z,15.05
2023-01-25T16:28:13.677Z,15.30
2023-01-25T16:30:59.202Z,14.85
2023-01-25T16:33:44.895Z,15.18
2023-01-25T16:36:31.534Z,15.10
2023-01-25T16:39:22.134Z,16.38
2023-01-25T16:42:09.597Z,17.02
2023-01-25T16:44:54.887Z,16.42
2023-01-25T16:47:40.063Z,15.10
2023-01-25T16:50:25.121Z,15.48
2023-01-25T16:53:10.500Z,17.55
2023-01-25T16:55:55.506Z,17.10
2023-01-25T16:58:40.622Z,18.60
2023-01-25T17:01:26.136Z,19.08
2023-01-25T17:04:12.397Z,17.50
2023-01-25T17:06:58.843Z,17.73
2023-01-25T17:09:43.977Z,18.83
2023-01-25T17:12:29.714Z,18.52
2023-01-25T17:15:14.642Z,17.33
2023-01-25T17:17:59.787Z,18.25
2023-01-25T17:20:44.990Z,16.88
2023-01-25T17:23:36.045Z,16.92
2023-01-25T17:26:22.100Z,16.90
2023-01-25T17:29:07.215Z,17.73
2023-01-25T17:31:52.706Z,17.77
2023-01-25T17:34:37.809Z,18.15
2023-01-25T17:37:23.128Z,19.45
2023-01-25T17:40:10.358Z,19.02
2023-01-25T17:42:55.651Z,18.25
2023-01-25T17:45:40.595Z,20.80
2023-01-25T17:48:26.097Z,19.60
2023-01-25T17:51:11.157Z,18.58
2023-01-25T17:53:57.532Z,20.52
2023-01-25T17:56:42.781Z,20.20
2023-01-25T17:59:28.088Z,17.77
2023-01-25T18:02:13.036Z,18.67
2023-01-25T18:04:58.269Z,19.77
2023-01-25T18:07:45.187Z,18.80
2023-01-25T18:10:30.387Z,18.75
2023-01-25T18:13:15.305Z,20.42
2023-01-25T18:16:00.885Z,19.63
2023-01-25T18:18:47.290Z,20.70
2023-01-25T18:21:33.188Z,19.65
2023-01-25T18:24:23.533Z,19.52
2023-01-25T18:27:29.224Z,21.10
2023-01-25T18:30:29.740Z,21.08
2023-01-25T18:33:14.934Z,21.27
2023-01-25T18:36:02.792Z,20.35
2023-01-25T18:38:47.983Z,21.48
2023-01-25T18:41:33.204Z,22.45
2023-01-25T18:44:19.826Z,23.65
2023-01-25T18:47:05.255Z,26.80
2023-01-25T18:49:52.161Z,24.33
2023-01-25T18:52:37.481Z,23.75
2023-01-25T18:55:22.702Z,23.60
2023-01-25T18:58:12.207Z,23.85
2023-01-25T19:01:08.846Z,24.50
2023-01-25T19:03:53.700Z,22.63
2023-01-25T19:06:38.796Z,23.33
2023-01-25T19:09:25.002Z,24.20
2023-01-25T19:12:10.400Z,22.02
2023-01-25T19:14:55.559Z,23.08
2023-01-25T19:17:40.783Z,23.63
2023-01-25T19:20:27.552Z,23.35
2023-01-25T19:23:12.541Z,23.38
2023-01-25T19:25:57.696Z,23.02
2023-01-25T19:28:43.449Z,22.55
2023-01-25T19:31:32.064Z,24.40
2023-01-25T19:34:17.024Z,24.02
2023-01-25T19:37:02.001Z,25.08
2023-01-25T19:39:47.248Z,25.20
2023-01-25T19:42:32.717Z,25.88
2023-01-25T19:45:17.869Z,25.50
2023-01-25T19:48:05.426Z,24.35
2023-01-25T19:50:50.637Z,23.88
2023-01-25T19:53:35.914Z,25.17
2023-01-25T19:56:21.386Z,24.23
2023-01-25T19:59:10.328Z,24.50
2023-01-25T20:01:55.664Z,24.00
2023-01-25T20:04:40.903Z,24.17
2023-01-25T20:07:27.699Z,23.45
2023-01-25T20:10:13.022Z,23.63
2023-01-25T20:12:58.048Z,23.67
2023-01-25T20:15:47.444Z,23.45
2023-01-25T20:21:23.537Z,23.27
2023-01-25T20:24:10.165Z,21.73
2023-01-25T20:26:58.719Z,22.65
2023-01-25T20:29:44.207Z,21.58
2023-01-25T20:32:33.138Z,20.70
2023-01-25T20:35:18.604Z,19.65
2023-01-25T20:38:03.929Z,19.23
2023-01-25T20:40:48.885Z,16.95
2023-01-25T20:43:34.303Z,17.50
2023-01-25T20:46:21.420Z,17.13
2023-01-25T20:49:09.555Z,17.45
2023-01-25T20:51:54.727Z,16.33
2023-01-25T20:54:41.583Z,18.60
2023-01-25T20:57:26.863Z,26.48
2023-01-25T21:00:12.300Z,16.88
2023-01-25T21:02:57.163Z,14.68
2023-01-25T21:06:00.345Z,14.93
2023-01-25T21:08:45.453Z,14.98
2023-01-25T21:11:31.172Z,14.73
2023-01-25T21:14:16.353Z,30.80
2023-01-25T21:17:01.559Z,17.70
2023-01-25T21:19:47.997Z,68.60
2023-01-25T21:22:33.769Z,29.05
2023-01-25T21:25:18.800Z,39.33
2023-01-25T21:28:04.286Z,39.42
2023-01-25T21:30:49.476Z,19.58
2023-01-25T21:33:35.000Z,27.63
2023-01-25T21:36:20.794Z,14.93
2023-01-25T21:39:06.284Z,13.38
2023-01-25T21:41:51.376Z,15.98
2023-01-25T21:44:55.162Z,20.88
2023-01-25T21:47:40.360Z,13.70
2023-01-25T21:50:44.527Z,15.40
2023-01-25T21:53:29.581Z,17.98
2023-01-25T21:56:14.505Z,12.00
2023-01-25T21:58:59.585Z,15.27
2023-01-25T22:01:45.442Z,13.32
2023-01-25T22:04:35.776Z,15.50
2023-01-25T22:07:21.183Z,12.18
2023-01-25T22:10:06.738Z,14.10
2023-01-25T22:12:51.935Z,12.85
2023-01-25T22:15:37.182Z,13.05
2023-01-25T22:18:22.153Z,14.00
2023-01-25T22:21:14.944Z,13.23
2023-01-25T22:24:02.016Z,15.07
2023-01-25T22:27:04.460Z,14.55
2023-01-25T22:29:49.468Z,14.40
2023-01-25T22:32:34.353Z,14.90
2023-01-25T22:35:19.641Z,15.30
2023-01-25T22:38:04.669Z,16.67
2023-01-25T22:40:49.676Z,15.73
2023-01-25T22:43:36.086Z,15.40
2023-01-25T22:46:23.870Z,14.35
2023-01-25T22:49:09.397Z,13.80
2023-01-25T22:51:54.548Z,13.77
2023-01-25T22:54:39.471Z,13.38
2023-01-25T22:57:24.727Z,14.00
2023-01-25T23:00:10.909Z,12.75
2023-01-25T23:02:56.147Z,14.60
2023-01-25T23:05:41.345Z,12.77
2023-01-25T23:08:28.611Z,12.57
2023-01-25T23:11:16.612Z,11.77
2023-01-25T23:14:21.458Z,10.27
2023-01-25T23:17:25.343Z,10.05
2023-01-25T23:20:12.933Z,9.50
2023-01-25T23:22:58.286Z,9.07
2023-01-25T23:25:46.124Z,9.20
2023-01-25T23:28:31.495Z,10.13
2023-01-25T23:31:17.769Z,8.75
2023-01-25T23:34:05.514Z,8.93
2023-01-25T23:36:50.793Z,8.23
2023-01-25T23:39:36.008Z,7.68
2023-01-25T23:42:21.244Z,8.25
2023-01-25T23:45:10.690Z,7.43
2023-01-25T23:47:55.740Z,6.53
2023-01-25T23:50:40.867Z,5.60
2023-01-25T23:53:27.138Z,6.10
2023-01-25T23:56:14.977Z,4.85
2023-01-25T23:58:59.859Z,4.25
